sensor_id;sensor_type;location;lat;lon;timestamp;P1;durP1;ratioP1;P2;durP2;ratioP2
10721;SDS011;5412;59.450;18.124;2024-03-29T00:00:53;16.70;;;11.25;;
10721;SDS011;5412;59.450;18.124;2024-03-29T00:03:18;16.58;;;11.75;;
10721;SDS011;5412;59.450;18.124;2024-03-29T00:05:44;18.65;;;11.82;;
10721;SDS011;5412;59.450;18.124;2024-03-29T00:08:10;22.50;;;12.93;;
10721;SDS011;5412;59.450;18.124;2024-03-29T00:10:36;18.35;;;12.27;;
10721;SDS011;5412;59.450;18.124;2024-03-29T00:13:02;15.23;;;10.20;;
10721;SDS011;5412;59.450;18.124;2024-03-29T00:15:27;18.75;;;11.48;;
10721;SDS011;5412;59.450;18.124;2024-03-29T00:17:54;18.05;;;10.65;;
10721;SDS011;5412;59.450;18.124;2024-03-29T00:20:19;15.82;;;11.30;;
10721;SDS011;5412;59.450;18.124;2024-03-29T00:22:46;14.55;;;11.02;;
10721;SDS011;5412;59.450;18.124;2024-03-29T00:25:12;16.60;;;11.10;;
10721;SDS011;5412;59.450;18.124;2024-03-29T00:27:38;19.05;;;11.27;;
10721;SDS011;5412;59.450;18.124;2024-03-29T00:30:03;16.75;;;10.80;;
10721;SDS011;5412;59.450;18.124;2024-03-29T00:32:29;17.42;;;11.95;;
10721;SDS011;5412;59.450;18.124;2024-03-29T00:34:55;20.25;;;12.05;;
10721;SDS011;5412;59.450;18.124;2024-03-29T00:37:23;18.23;;;11.32;;
10721;SDS011;5412;59.450;18.124;2024-03-29T00:39:49;16.25;;;12.05;;
10721;SDS011;5412;59.450;18.124;2024-03-29T00:42:15;25.98;;;12.02;;
10721;SDS011;5412;59.450;18.124;2024-03-29T00:44:42;18.75;;;10.80;;
10721;SDS011;5412;59.450;18.124;2024-03-29T00:47:08;19.13;;;11.50;;
10721;SDS011;5412;59.450;18.124;2024-03-29T00:49:34;18.85;;;12.75;;
10721;SDS011;5412;59.450;18.124;2024-03-29T00:52:00;20.77;;;12.07;;
10721;SDS011;5412;59.450;18.124;2024-03-29T00:54:26;17.90;;;11.32;;
10721;SDS011;5412;59.450;18.124;2024-03-29T00:56:52;20.38;;;12.45;;
10721;SDS011;5412;59.450;18.124;2024-03-29T00:59:18;23.60;;;13.00;;
10721;SDS011;5412;59.450;18.124;2024-03-29T01:01:45;26.02;;;13.00;;
10721;SDS011;5412;59.450;18.124;2024-03-29T01:04:11;23.98;;;13.73;;
10721;SDS011;5412;59.450;18.124;2024-03-29T01:06:37;23.08;;;13.40;;
10721;SDS011;5412;59.450;18.124;2024-03-29T01:09:05;26.70;;;13.65;;
10721;SDS011;5412;59.450;18.124;2024-03-29T01:11:31;25.63;;;14.38;;
10721;SDS011;5412;59.450;18.124;2024-03-29T01:13:57;32.10;;;15.82;;
10721;SDS011;5412;59.450;18.124;2024-03-29T01:16:23;37.85;;;14.30;;
10721;SDS011;5412;59.450;18.124;2024-03-29T01:18:49;24.65;;;14.45;;
10721;SDS011;5412;59.450;18.124;2024-03-29T01:21:17;46.10;;;15.05;;
10721;SDS011;5412;59.450;18.124;2024-03-29T01:23:43;32.85;;;14.63;;
10721;SDS011;5412;59.450;18.124;2024-03-29T01:26:09;50.72;;;16.88;;
10721;SDS011;5412;59.450;18.124;2024-03-29T01:28:37;33.22;;;14.23;;
10721;SDS011;5412;59.450;18.124;2024-03-29T01:31:04;36.33;;;14.48;;
10721;SDS011;5412;59.450;18.124;2024-03-29T01:33:30;37.70;;;14.90;;
10721;SDS011;5412;59.450;18.124;2024-03-29T01:35:58;42.50;;;15.25;;
10721;SDS011;5412;59.450;18.124;2024-03-29T01:38:23;72.57;;;16.67;;
10721;SDS011;5412;59.450;18.124;2024-03-29T01:40:49;41.75;;;14.68;;
10721;SDS011;5412;59.450;18.124;2024-03-29T01:43:15;42.63;;;14.75;;
10721;SDS011;5412;59.450;18.124;2024-03-29T01:45:41;70.20;;;16.70;;
10721;SDS011;5412;59.450;18.124;2024-03-29T01:48:10;72.00;;;17.02;;
10721;SDS011;5412;59.450;18.124;2024-03-29T01:50:36;68.13;;;16.45;;
10721;SDS011;5412;59.450;18.124;2024-03-29T01:53:02;26.98;;;15.15;;
10721;SDS011;5412;59.450;18.124;2024-03-29T01:55:30;40.58;;;15.50;;
10721;SDS011;5412;59.450;18.124;2024-03-29T01:57:56;51.25;;;14.88;;
10721;SDS011;5412;59.450;18.124;2024-03-29T02:00:23;41.58;;;15.50;;
10721;SDS011;5412;59.450;18.124;2024-03-29T02:02:50;27.17;;;15.00;;
10721;SDS011;5412;59.450;18.124;2024-03-29T02:05:16;86.32;;;17.65;;
10721;SDS011;5412;59.450;18.124;2024-03-29T02:07:42;39.42;;;14.45;;
10721;SDS011;5412;59.450;18.124;2024-03-29T02:10:10;21.60;;;14.10;;
10721;SDS011;5412;59.450;18.124;2024-03-29T02:12:38;30.17;;;14.13;;
10721;SDS011;5412;59.450;18.124;2024-03-29T02:15:04;59.85;;;15.73;;
10721;SDS011;5412;59.450;18.124;2024-03-29T02:17:31;35.75;;;14.68;;
10721;SDS011;5412;59.450;18.124;2024-03-29T02:19:57;30.77;;;14.23;;
10721;SDS011;5412;59.450;18.124;2024-03-29T02:22:23;58.40;;;14.55;;
10721;SDS011;5412;59.450;18.124;2024-03-29T02:24:53;27.38;;;14.13;;
10721;SDS011;5412;59.450;18.124;2024-03-29T02:27:21;29.33;;;13.60;;
10721;SDS011;5412;59.450;18.124;2024-03-29T02:29:47;28.90;;;13.35;;
10721;SDS011;5412;59.450;18.124;2024-03-29T02:32:13;27.15;;;12.63;;
10721;SDS011;5412;59.450;18.124;2024-03-29T02:34:39;29.92;;;13.55;;
10721;SDS011;5412;59.450;18.124;2024-03-29T02:37:04;25.98;;;13.18;;
10721;SDS011;5412;59.450;18.124;2024-03-29T02:39:31;19.80;;;13.55;;
10721;SDS011;5412;59.450;18.124;2024-03-29T02:41:57;76.60;;;15.43;;
10721;SDS011;5412;59.450;18.124;2024-03-29T02:44:22;36.83;;;14.00;;
10721;SDS011;5412;59.450;18.124;2024-03-29T02:46:48;22.60;;;12.95;;
10721;SDS011;5412;59.450;18.124;2024-03-29T02:49:14;26.48;;;13.27;;
10721;SDS011;5412;59.450;18.124;2024-03-29T02:51:39;19.65;;;12.32;;
10721;SDS011;5412;59.450;18.124;2024-03-29T02:54:05;23.58;;;13.65;;
10721;SDS011;5412;59.450;18.124;2024-03-29T02:56:31;19.17;;;12.82;;
10721;SDS011;5412;59.450;18.124;2024-03-29T02:58:59;37.40;;;13.23;;
10721;SDS011;5412;59.450;18.124;2024-03-29T03:01:24;35.75;;;14.00;;
10721;SDS011;5412;59.450;18.124;2024-03-29T03:03:50;27.15;;;11.55;;
10721;SDS011;5412;59.450;18.124;2024-03-29T03:06:16;28.40;;;12.40;;
10721;SDS011;5412;59.450;18.124;2024-03-29T03:08:41;29.08;;;12.15;;
10721;SDS011;5412;59.450;18.124;2024-03-29T03:11:39;41.58;;;12.23;;
10721;SDS011;5412;59.450;18.124;2024-03-29T03:14:05;31.33;;;12.15;;
10721;SDS011;5412;59.450;18.124;2024-03-29T03:16:30;66.65;;;14.27;;
10721;SDS011;5412;59.450;18.124;2024-03-29T03:18:56;23.40;;;11.73;;
10721;SDS011;5412;59.450;18.124;2024-03-29T03:21:22;20.17;;;12.38;;
10721;SDS011;5412;59.450;18.124;2024-03-29T03:23:47;23.48;;;12.55;;
10721;SDS011;5412;59.450;18.124;2024-03-29T03:26:13;19.67;;;12.77;;
10721;SDS011;5412;59.450;18.124;2024-03-29T03:28:39;19.42;;;12.88;;
10721;SDS011;5412;59.450;18.124;2024-03-29T03:31:04;20.77;;;12.55;;
10721;SDS011;5412;59.450;18.124;2024-03-29T03:33:32;17.20;;;11.93;;
10721;SDS011;5412;59.450;18.124;2024-03-29T03:35:58;15.98;;;11.77;;
10721;SDS011;5412;59.450;18.124;2024-03-29T03:38:23;19.92;;;12.90;;
10721;SDS011;5412;59.450;18.124;2024-03-29T03:40:49;17.92;;;12.70;;
10721;SDS011;5412;59.450;18.124;2024-03-29T03:43:15;19.33;;;13.10;;
10721;SDS011;5412;59.450;18.124;2024-03-29T03:45:41;25.42;;;12.68;;
10721;SDS011;5412;59.450;18.124;2024-03-29T03:48:07;21.23;;;12.63;;
10721;SDS011;5412;59.450;18.124;2024-03-29T03:50:35;21.48;;;12.70;;
10721;SDS011;5412;59.450;18.124;2024-03-29T03:53:01;18.05;;;11.85;;
10721;SDS011;5412;59.450;18.124;2024-03-29T03:55:26;22.98;;;12.85;;
10721;SDS011;5412;59.450;18.124;2024-03-29T03:57:52;17.02;;;10.73;;
10721;SDS011;5412;59.450;18.124;2024-03-29T04:00:19;19.08;;;11.45;;
10721;SDS011;5412;59.450;18.124;2024-03-29T04:02:48;17.75;;;11.15;;
10721;SDS011;5412;59.450;18.124;2024-03-29T04:05:16;19.92;;;11.65;;
10721;SDS011;5412;59.450;18.124;2024-03-29T04:07:42;17.95;;;11.38;;
10721;SDS011;5412;59.450;18.124;2024-03-29T04:10:08;21.60;;;12.00;;
10721;SDS011;5412;59.450;18.124;2024-03-29T04:12:34;21.88;;;11.40;;
10721;SDS011;5412;59.450;18.124;2024-03-29T04:15:00;18.38;;;11.60;;
10721;SDS011;5412;59.450;18.124;2024-03-29T04:17:25;18.67;;;12.15;;
10721;SDS011;5412;59.450;18.124;2024-03-29T04:19:51;16.35;;;10.63;;
10721;SDS011;5412;59.450;18.124;2024-03-29T04:22:17;21.67;;;11.38;;
10721;SDS011;5412;59.450;18.124;2024-03-29T04:24:43;23.33;;;12.50;;
10721;SDS011;5412;59.450;18.124;2024-03-29T04:27:09;20.55;;;12.60;;
10721;SDS011;5412;59.450;18.124;2024-03-29T04:29:34;21.73;;;12.52;;
10721;SDS011;5412;59.450;18.124;2024-03-29T04:32:00;22.45;;;13.20;;
10721;SDS011;5412;59.450;18.124;2024-03-29T04:34:26;19.88;;;11.95;;
10721;SDS011;5412;59.450;18.124;2024-03-29T04:36:51;22.38;;;12.60;;
10721;SDS011;5412;59.450;18.124;2024-03-29T04:39:17;21.48;;;13.13;;
10721;SDS011;5412;59.450;18.124;2024-03-29T04:41:42;21.90;;;13.20;;
10721;SDS011;5412;59.450;18.124;2024-03-29T04:44:09;20.27;;;13.00;;
10721;SDS011;5412;59.450;18.124;2024-03-29T04:46:36;22.38;;;13.45;;
10721;SDS011;5412;59.450;18.124;2024-03-29T04:49:02;24.30;;;13.25;;
10721;SDS011;5412;59.450;18.124;2024-03-29T04:51:28;24.50;;;14.35;;
10721;SDS011;5412;59.450;18.124;2024-03-29T04:53:53;26.20;;;14.48;;
10721;SDS011;5412;59.450;18.124;2024-03-29T04:56:19;23.48;;;13.82;;
10721;SDS011;5412;59.450;18.124;2024-03-29T04:58:45;21.15;;;13.00;;
10721;SDS011;5412;59.450;18.124;2024-03-29T05:01:13;23.40;;;13.50;;
10721;SDS011;5412;59.450;18.124;2024-03-29T05:03:39;20.98;;;13.25;;
10721;SDS011;5412;59.450;18.124;2024-03-29T05:06:04;24.27;;;13.48;;
10721;SDS011;5412;59.450;18.124;2024-03-29T05:08:30;25.75;;;14.57;;
10721;SDS011;5412;59.450;18.124;2024-03-29T05:10:56;22.88;;;14.50;;
10721;SDS011;5412;59.450;18.124;2024-03-29T05:13:22;21.60;;;13.55;;
10721;SDS011;5412;59.450;18.124;2024-03-29T05:15:48;19.55;;;12.60;;
10721;SDS011;5412;59.450;18.124;2024-03-29T05:18:14;22.55;;;14.25;;
10721;SDS011;5412;59.450;18.124;2024-03-29T05:20:39;19.90;;;13.07;;
10721;SDS011;5412;59.450;18.124;2024-03-29T05:23:06;21.17;;;12.88;;
10721;SDS011;5412;59.450;18.124;2024-03-29T05:25:32;16.95;;;12.38;;
10721;SDS011;5412;59.450;18.124;2024-03-29T05:27:58;21.30;;;12.65;;
10721;SDS011;5412;59.450;18.124;2024-03-29T05:30:24;21.15;;;13.18;;
10721;SDS011;5412;59.450;18.124;2024-03-29T05:32:50;22.02;;;12.30;;
10721;SDS011;5412;59.450;18.124;2024-03-29T05:35:15;19.55;;;13.02;;
10721;SDS011;5412;59.450;18.124;2024-03-29T05:37:41;22.67;;;12.65;;
10721;SDS011;5412;59.450;18.124;2024-03-29T05:40:07;22.77;;;12.80;;
10721;SDS011;5412;59.450;18.124;2024-03-29T05:42:34;19.50;;;12.82;;
10721;SDS011;5412;59.450;18.124;2024-03-29T05:45:01;17.58;;;12.20;;
10721;SDS011;5412;59.450;18.124;2024-03-29T05:47:28;19.83;;;12.35;;
10721;SDS011;5412;59.450;18.124;2024-03-29T05:49:54;19.08;;;11.57;;
10721;SDS011;5412;59.450;18.124;2024-03-29T05:52:19;22.20;;;13.13;;
10721;SDS011;5412;59.450;18.124;2024-03-29T05:54:48;20.98;;;13.40;;
10721;SDS011;5412;59.450;18.124;2024-03-29T05:57:13;18.63;;;11.98;;
10721;SDS011;5412;59.450;18.124;2024-03-29T05:59:39;21.35;;;12.50;;
10721;SDS011;5412;59.450;18.124;2024-03-29T06:02:05;24.92;;;13.73;;
10721;SDS011;5412;59.450;18.124;2024-03-29T06:04:31;19.30;;;11.75;;
10721;SDS011;5412;59.450;18.124;2024-03-29T06:07:01;20.70;;;12.88;;
10721;SDS011;5412;59.450;18.124;2024-03-29T06:09:27;19.27;;;11.38;;
10721;SDS011;5412;59.450;18.124;2024-03-29T06:11:56;19.25;;;11.45;;
10721;SDS011;5412;59.450;18.124;2024-03-29T06:14:22;17.02;;;11.35;;
10721;SDS011;5412;59.450;18.124;2024-03-29T06:17:07;17.40;;;11.32;;
10721;SDS011;5412;59.450;18.124;2024-03-29T06:19:52;18.85;;;12.63;;
10721;SDS011;5412;59.450;18.124;2024-03-29T06:22:23;20.75;;;12.25;;
10721;SDS011;5412;59.450;18.124;2024-03-29T06:24:49;18.02;;;12.20;;
10721;SDS011;5412;59.450;18.124;2024-03-29T06:27:17;17.38;;;11.32;;
10721;SDS011;5412;59.450;18.124;2024-03-29T06:29:43;17.98;;;12.45;;
10721;SDS011;5412;59.450;18.124;2024-03-29T06:32:09;15.38;;;11.45;;
10721;SDS011;5412;59.450;18.124;2024-03-29T06:34:35;19.48;;;10.85;;
10721;SDS011;5412;59.450;18.124;2024-03-29T06:37:01;19.35;;;10.48;;
10721;SDS011;5412;59.450;18.124;2024-03-29T06:39:27;16.63;;;10.57;;
10721;SDS011;5412;59.450;18.124;2024-03-29T06:41:53;15.15;;;11.55;;
10721;SDS011;5412;59.450;18.124;2024-03-29T06:44:18;16.38;;;11.57;;
10721;SDS011;5412;59.450;18.124;2024-03-29T06:46:45;18.33;;;11.82;;
10721;SDS011;5412;59.450;18.124;2024-03-29T06:49:11;19.45;;;11.35;;
10721;SDS011;5412;59.450;18.124;2024-03-29T06:51:38;18.95;;;11.27;;
10721;SDS011;5412;59.450;18.124;2024-03-29T06:54:05;18.63;;;12.05;;
10721;SDS011;5412;59.450;18.124;2024-03-29T06:56:31;17.13;;;11.52;;
10721;SDS011;5412;59.450;18.124;2024-03-29T06:58:56;16.13;;;10.35;;
10721;SDS011;5412;59.450;18.124;2024-03-29T07:01:22;20.40;;;11.50;;
10721;SDS011;5412;59.450;18.124;2024-03-29T07:03:48;15.15;;;10.30;;
10721;SDS011;5412;59.450;18.124;2024-03-29T07:06:13;17.05;;;10.77;;
10721;SDS011;5412;59.450;18.124;2024-03-29T07:08:39;13.52;;;9.30;;
10721;SDS011;5412;59.450;18.124;2024-03-29T07:11:05;17.45;;;11.23;;
10721;SDS011;5412;59.450;18.124;2024-03-29T07:13:30;17.88;;;10.98;;
10721;SDS011;5412;59.450;18.124;2024-03-29T07:15:57;17.10;;;9.45;;
10721;SDS011;5412;59.450;18.124;2024-03-29T07:18:23;13.57;;;9.75;;
10721;SDS011;5412;59.450;18.124;2024-03-29T07:20:49;14.32;;;9.98;;
10721;SDS011;5412;59.450;18.124;2024-03-29T07:23:15;15.05;;;9.68;;
10721;SDS011;5412;59.450;18.124;2024-03-29T07:25:43;12.90;;;9.05;;
10721;SDS011;5412;59.450;18.124;2024-03-29T07:28:10;15.13;;;9.68;;
10721;SDS011;5412;59.450;18.124;2024-03-29T07:30:39;15.65;;;9.38;;
10721;SDS011;5412;59.450;18.124;2024-03-29T07:33:09;14.05;;;8.85;;
10721;SDS011;5412;59.450;18.124;2024-03-29T07:35:35;12.07;;;8.95;;
10721;SDS011;5412;59.450;18.124;2024-03-29T07:38:03;15.18;;;8.27;;
10721;SDS011;5412;59.450;18.124;2024-03-29T07:40:28;12.05;;;8.13;;
10721;SDS011;5412;59.450;18.124;2024-03-29T07:42:54;13.00;;;7.93;;
10721;SDS011;5412;59.450;18.124;2024-03-29T07:45:20;11.32;;;7.85;;
10721;SDS011;5412;59.450;18.124;2024-03-29T07:47:46;11.43;;;7.90;;
10721;SDS011;5412;59.450;18.124;2024-03-29T07:50:17;11.45;;;8.30;;
10721;SDS011;5412;59.450;18.124;2024-03-29T07:52:46;9.57;;;7.97;;
10721;SDS011;5412;59.450;18.124;2024-03-29T07:55:12;10.63;;;6.32;;
10721;SDS011;5412;59.450;18.124;2024-03-29T07:57:38;11.52;;;7.18;;
10721;SDS011;5412;59.450;18.124;2024-03-29T08:00:04;12.13;;;8.85;;
10721;SDS011;5412;59.450;18.124;2024-03-29T08:02:31;14.43;;;8.18;;
10721;SDS011;5412;59.450;18.124;2024-03-29T08:04:57;9.70;;;6.47;;
10721;SDS011;5412;59.450;18.124;2024-03-29T08:07:24;13.68;;;8.35;;
10721;SDS011;5412;59.450;18.124;2024-03-29T08:09:49;11.45;;;7.22;;
10721;SDS011;5412;59.450;18.124;2024-03-29T08:12:16;11.15;;;6.50;;
10721;SDS011;5412;59.450;18.124;2024-03-29T08:14:42;9.82;;;6.70;;
10721;SDS011;5412;59.450;18.124;2024-03-29T08:17:07;9.15;;;6.35;;
10721;SDS011;5412;59.450;18.124;2024-03-29T08:19:39;8.30;;;6.13;;
10721;SDS011;5412;59.450;18.124;2024-03-29T08:22:05;8.65;;;6.35;;
10721;SDS011;5412;59.450;18.124;2024-03-29T08:24:31;9.57;;;6.25;;
10721;SDS011;5412;59.450;18.124;2024-03-29T08:26:56;8.68;;;5.90;;
10721;SDS011;5412;59.450;18.124;2024-03-29T08:29:24;7.75;;;5.72;;
10721;SDS011;5412;59.450;18.124;2024-03-29T08:31:50;9.40;;;6.22;;
10721;SDS011;5412;59.450;18.124;2024-03-29T08:34:15;7.95;;;5.90;;
10721;SDS011;5412;59.450;18.124;2024-03-29T08:36:41;7.88;;;5.60;;
10721;SDS011;5412;59.450;18.124;2024-03-29T08:39:07;8.57;;;5.15;;
10721;SDS011;5412;59.450;18.124;2024-03-29T08:41:32;7.65;;;5.85;;
10721;SDS011;5412;59.450;18.124;2024-03-29T08:43:58;7.05;;;5.35;;
10721;SDS011;5412;59.450;18.124;2024-03-29T08:46:24;9.52;;;5.82;;
10721;SDS011;5412;59.450;18.124;2024-03-29T08:48:49;8.27;;;5.18;;
10721;SDS011;5412;59.450;18.124;2024-03-29T08:51:15;6.88;;;5.13;;
10721;SDS011;5412;59.450;18.124;2024-03-29T08:53:41;7.82;;;5.22;;
10721;SDS011;5412;59.450;18.124;2024-03-29T08:56:07;7.82;;;5.07;;
10721;SDS011;5412;59.450;18.124;2024-03-29T08:58:32;7.40;;;4.68;;
10721;SDS011;5412;59.450;18.124;2024-03-29T09:00:58;9.75;;;5.03;;
10721;SDS011;5412;59.450;18.124;2024-03-29T09:03:25;5.85;;;4.68;;
10721;SDS011;5412;59.450;18.124;2024-03-29T09:05:51;7.00;;;4.90;;
10721;SDS011;5412;59.450;18.124;2024-03-29T09:08:17;6.65;;;5.07;;
10721;SDS011;5412;59.450;18.124;2024-03-29T09:10:42;7.13;;;4.93;;
10721;SDS011;5412;59.450;18.124;2024-03-29T09:13:08;7.45;;;4.68;;
10721;SDS011;5412;59.450;18.124;2024-03-29T09:15:35;7.93;;;4.50;;
10721;SDS011;5412;59.450;18.124;2024-03-29T09:18:01;6.85;;;4.55;;
10721;SDS011;5412;59.450;18.124;2024-03-29T09:20:34;6.35;;;4.03;;
10721;SDS011;5412;59.450;18.124;2024-03-29T09:23:03;8.55;;;4.40;;
10721;SDS011;5412;59.450;18.124;2024-03-29T09:25:29;7.85;;;4.05;;
10721;SDS011;5412;59.450;18.124;2024-03-29T09:27:57;7.13;;;4.30;;
10721;SDS011;5412;59.450;18.124;2024-03-29T09:30:22;6.35;;;4.43;;
10721;SDS011;5412;59.450;18.124;2024-03-29T09:32:48;8.23;;;4.07;;
10721;SDS011;5412;59.450;18.124;2024-03-29T09:35:17;5.03;;;4.00;;
10721;SDS011;5412;59.450;18.124;2024-03-29T09:37:42;9.65;;;4.43;;
10721;SDS011;5412;59.450;18.124;2024-03-29T09:40:09;6.13;;;3.85;;
10721;SDS011;5412;59.450;18.124;2024-03-29T09:42:35;8.23;;;4.20;;
10721;SDS011;5412;59.450;18.124;2024-03-29T09:45:04;5.25;;;3.60;;
10721;SDS011;5412;59.450;18.124;2024-03-29T09:47:31;6.35;;;3.88;;
10721;SDS011;5412;59.450;18.124;2024-03-29T09:50:02;7.57;;;3.92;;
10721;SDS011;5412;59.450;18.124;2024-03-29T09:52:31;8.20;;;3.85;;
10721;SDS011;5412;59.450;18.124;2024-03-29T09:54:58;6.57;;;3.60;;
10721;SDS011;5412;59.450;18.124;2024-03-29T09:57:26;6.20;;;4.10;;
10721;SDS011;5412;59.450;18.124;2024-03-29T09:59:58;7.10;;;3.55;;
10721;SDS011;5412;59.450;18.124;2024-03-29T10:02:25;8.63;;;5.72;;
10721;SDS011;5412;59.450;18.124;2024-03-29T10:04:53;7.03;;;3.90;;
10721;SDS011;5412;59.450;18.124;2024-03-29T10:07:22;6.50;;;4.07;;
10721;SDS011;5412;59.450;18.124;2024-03-29T10:09:49;6.20;;;3.90;;
10721;SDS011;5412;59.450;18.124;2024-03-29T10:12:16;4.85;;;3.42;;
10721;SDS011;5412;59.450;18.124;2024-03-29T10:14:46;5.15;;;3.70;;
10721;SDS011;5412;59.450;18.124;2024-03-29T10:17:18;6.57;;;4.05;;
10721;SDS011;5412;59.450;18.124;2024-03-29T10:19:45;5.55;;;3.75;;
10721;SDS011;5412;59.450;18.124;2024-03-29T10:22:11;6.30;;;4.18;;
10721;SDS011;5412;59.450;18.124;2024-03-29T10:24:37;6.40;;;3.63;;
10721;SDS011;5412;59.450;18.124;2024-03-29T10:27:03;6.35;;;3.83;;
10721;SDS011;5412;59.450;18.124;2024-03-29T10:29:29;5.85;;;3.83;;
10721;SDS011;5412;59.450;18.124;2024-03-29T10:31:56;4.60;;;3.63;;
10721;SDS011;5412;59.450;18.124;2024-03-29T10:34:21;5.82;;;3.40;;
10721;SDS011;5412;59.450;18.124;2024-03-29T10:36:48;6.10;;;3.60;;
10721;SDS011;5412;59.450;18.124;2024-03-29T10:39:16;5.28;;;3.72;;
10721;SDS011;5412;59.450;18.124;2024-03-29T10:41:42;6.45;;;3.50;;
10721;SDS011;5412;59.450;18.124;2024-03-29T10:44:09;5.68;;;4.05;;
10721;SDS011;5412;59.450;18.124;2024-03-29T10:46:39;6.88;;;3.85;;
10721;SDS011;5412;59.450;18.124;2024-03-29T10:49:10;6.68;;;4.43;;
10721;SDS011;5412;59.450;18.124;2024-03-29T10:51:39;5.82;;;3.72;;
10721;SDS011;5412;59.450;18.124;2024-03-29T10:54:09;6.57;;;3.90;;
10721;SDS011;5412;59.450;18.124;2024-03-29T10:56:37;8.18;;;3.83;;
10721;SDS011;5412;59.450;18.124;2024-03-29T10:59:07;7.78;;;4.13;;
10721;SDS011;5412;59.450;18.124;2024-03-29T11:01:43;5.25;;;4.20;;
10721;SDS011;5412;59.450;18.124;2024-03-29T11:04:18;6.07;;;3.97;;
10721;SDS011;5412;59.450;18.124;2024-03-29T11:06:47;6.80;;;3.95;;
10721;SDS011;5412;59.450;18.124;2024-03-29T11:09:16;7.43;;;4.05;;
10721;SDS011;5412;59.450;18.124;2024-03-29T11:11:46;7.70;;;4.22;;
10721;SDS011;5412;59.450;18.124;2024-03-29T11:14:18;6.13;;;4.35;;
10721;SDS011;5412;59.450;18.124;2024-03-29T11:16:49;5.32;;;3.90;;
10721;SDS011;5412;59.450;18.124;2024-03-29T11:19:20;7.28;;;4.53;;
10721;SDS011;5412;59.450;18.124;2024-03-29T11:21:45;6.47;;;4.43;;
10721;SDS011;5412;59.450;18.124;2024-03-29T11:24:16;6.07;;;4.43;;
10721;SDS011;5412;59.450;18.124;2024-03-29T11:26:44;5.82;;;4.05;;
10721;SDS011;5412;59.450;18.124;2024-03-29T11:29:20;10.63;;;4.68;;
10721;SDS011;5412;59.450;18.124;2024-03-29T11:31:47;6.07;;;4.05;;
10721;SDS011;5412;59.450;18.124;2024-03-29T11:34:18;6.63;;;4.45;;
10721;SDS011;5412;59.450;18.124;2024-03-29T11:36:45;5.13;;;3.83;;
10721;SDS011;5412;59.450;18.124;2024-03-29T11:39:19;6.72;;;4.25;;
10721;SDS011;5412;59.450;18.124;2024-03-29T11:41:48;7.32;;;3.97;;
10721;SDS011;5412;59.450;18.124;2024-03-29T11:44:14;7.32;;;3.63;;
10721;SDS011;5412;59.450;18.124;2024-03-29T11:46:40;5.95;;;4.15;;
10721;SDS011;5412;59.450;18.124;2024-03-29T11:49:07;8.40;;;4.53;;
10721;SDS011;5412;59.450;18.124;2024-03-29T11:51:33;4.28;;;3.42;;
10721;SDS011;5412;59.450;18.124;2024-03-29T11:53:59;6.28;;;4.30;;
10721;SDS011;5412;59.450;18.124;2024-03-29T11:56:25;4.47;;;3.47;;
10721;SDS011;5412;59.450;18.124;2024-03-29T11:58:51;7.13;;;4.32;;
10721;SDS011;5412;59.450;18.124;2024-03-29T12:01:18;4.40;;;3.65;;
10721;SDS011;5412;59.450;18.124;2024-03-29T12:03:47;6.20;;;4.15;;
10721;SDS011;5412;59.450;18.124;2024-03-29T12:06:14;4.45;;;3.70;;
10721;SDS011;5412;59.450;18.124;2024-03-29T12:08:42;5.03;;;3.30;;
10721;SDS011;5412;59.450;18.124;2024-03-29T12:11:08;5.70;;;3.10;;
10721;SDS011;5412;59.450;18.124;2024-03-29T12:13:34;4.47;;;3.00;;
10721;SDS011;5412;59.450;18.124;2024-03-29T12:16:00;4.07;;;3.00;;
10721;SDS011;5412;59.450;18.124;2024-03-29T12:18:26;5.43;;;2.92;;
10721;SDS011;5412;59.450;18.124;2024-03-29T12:20:58;5.60;;;3.03;;
10721;SDS011;5412;59.450;18.124;2024-03-29T12:23:24;5.13;;;2.60;;
10721;SDS011;5412;59.450;18.124;2024-03-29T12:25:52;4.45;;;2.55;;
10721;SDS011;5412;59.450;18.124;2024-03-29T12:28:23;3.80;;;2.70;;
10721;SDS011;5412;59.450;18.124;2024-03-29T12:30:50;3.28;;;2.28;;
10721;SDS011;5412;59.450;18.124;2024-03-29T12:33:16;3.08;;;2.20;;
10721;SDS011;5412;59.450;18.124;2024-03-29T12:35:49;4.18;;;2.20;;
10721;SDS011;5412;59.450;18.124;2024-03-29T12:38:19;4.97;;;2.25;;
10721;SDS011;5412;59.450;18.124;2024-03-29T12:40:46;4.82;;;2.60;;
10721;SDS011;5412;59.450;18.124;2024-03-29T12:43:13;5.85;;;2.20;;
10721;SDS011;5412;59.450;18.124;2024-03-29T12:45:42;4.55;;;2.20;;
10721;SDS011;5412;59.450;18.124;2024-03-29T12:48:18;3.92;;;2.00;;
10721;SDS011;5412;59.450;18.124;2024-03-29T12:50:50;4.65;;;2.15;;
10721;SDS011;5412;59.450;18.124;2024-03-29T12:53:17;3.30;;;1.90;;
10721;SDS011;5412;59.450;18.124;2024-03-29T12:55:43;3.92;;;2.58;;
10721;SDS011;5412;59.450;18.124;2024-03-29T12:58:14;2.80;;;1.48;;
10721;SDS011;5412;59.450;18.124;2024-03-29T13:00:41;2.28;;;1.58;;
10721;SDS011;5412;59.450;18.124;2024-03-29T13:03:07;4.22;;;2.30;;
10721;SDS011;5412;59.450;18.124;2024-03-29T13:05:37;5.18;;;1.80;;
10721;SDS011;5412;59.450;18.124;2024-03-29T13:08:07;4.03;;;1.95;;
10721;SDS011;5412;59.450;18.124;2024-03-29T13:10:37;3.63;;;1.75;;
10721;SDS011;5412;59.450;18.124;2024-03-29T13:13:04;4.13;;;1.50;;
10721;SDS011;5412;59.450;18.124;2024-03-29T13:15:32;4.53;;;1.60;;
10721;SDS011;5412;59.450;18.124;2024-03-29T13:17:59;1.40;;;1.30;;
10721;SDS011;5412;59.450;18.124;2024-03-29T13:20:25;2.78;;;1.30;;
10721;SDS011;5412;59.450;18.124;2024-03-29T13:22:51;4.97;;;1.45;;
10721;SDS011;5412;59.450;18.124;2024-03-29T13:25:19;4.18;;;1.52;;
10721;SDS011;5412;59.450;18.124;2024-03-29T13:27:46;3.10;;;1.50;;
10721;SDS011;5412;59.450;18.124;2024-03-29T13:30:14;2.10;;;1.38;;
10721;SDS011;5412;59.450;18.124;2024-03-29T13:32:40;2.30;;;1.27;;
10721;SDS011;5412;59.450;18.124;2024-03-29T13:35:09;2.83;;;1.20;;
10721;SDS011;5412;59.450;18.124;2024-03-29T13:37:39;3.25;;;1.70;;
10721;SDS011;5412;59.450;18.124;2024-03-29T13:40:06;3.50;;;1.45;;
10721;SDS011;5412;59.450;18.124;2024-03-29T13:42:32;3.63;;;1.25;;
10721;SDS011;5412;59.450;18.124;2024-03-29T13:44:58;3.15;;;1.30;;
10721;SDS011;5412;59.450;18.124;2024-03-29T13:47:24;1.58;;;1.35;;
10721;SDS011;5412;59.450;18.124;2024-03-29T13:49:49;4.78;;;1.38;;
10721;SDS011;5412;59.450;18.124;2024-03-29T13:52:19;1.55;;;1.27;;
10721;SDS011;5412;59.450;18.124;2024-03-29T13:54:45;4.93;;;1.23;;
10721;SDS011;5412;59.450;18.124;2024-03-29T13:57:15;2.80;;;1.02;;
10721;SDS011;5412;59.450;18.124;2024-03-29T13:59:41;2.83;;;1.20;;
10721;SDS011;5412;59.450;18.124;2024-03-29T14:02:12;4.45;;;1.27;;
10721;SDS011;5412;59.450;18.124;2024-03-29T14:04:40;2.22;;;1.25;;
10721;SDS011;5412;59.450;18.124;2024-03-29T14:07:07;2.40;;;1.30;;
10721;SDS011;5412;59.450;18.124;2024-03-29T14:09:35;1.88;;;1.50;;
10721;SDS011;5412;59.450;18.124;2024-03-29T14:12:02;1.88;;;1.10;;
10721;SDS011;5412;59.450;18.124;2024-03-29T14:14:28;2.85;;;0.95;;
10721;SDS011;5412;59.450;18.124;2024-03-29T14:16:55;2.13;;;1.38;;
10721;SDS011;5412;59.450;18.124;2024-03-29T14:19:21;1.88;;;1.20;;
10721;SDS011;5412;59.450;18.124;2024-03-29T14:21:46;4.63;;;1.40;;
10721;SDS011;5412;59.450;18.124;2024-03-29T14:24:12;4.45;;;1.40;;
10721;SDS011;5412;59.450;18.124;2024-03-29T14:26:38;2.20;;;1.23;;
10721;SDS011;5412;59.450;18.124;2024-03-29T14:29:04;3.78;;;1.45;;
10721;SDS011;5412;59.450;18.124;2024-03-29T14:31:31;3.70;;;1.23;;